Hlavní strana
METAR-TAF:

METAR-TAF

Letiště :

Wilmington, Severní Karolína, Spojené státy americké

zeměpisná šířka: 34-16-14N, zeměpisná délka: 077-54-09W, výška: 10 m

Aktuální stav počasí

Zpráva byla vytvořena před 38 minutami, v 17:53 UTC
Západní vítr 15 kt s nárazy do 22 kt
Teplota 11°C
Vlhkost vzduchu 37%
Tlak 1016 hPa
Viditelnost: 16.1 km
Jasno

METAR: KILM 271753Z 28015G22KT 10SM CLR 11/M03 A2999 RMK AO2 SLP155 T01111028 10111 20072 50004

Čas: 13:31 (18:31 UTC)

Předpověď počasí

Zpráva byla vytvořena před 1 hodinou a 8 minutami, v 17:23 UTC
Předpověď platná od 27 v 18 UTC do 28 v 18 UTC
Západoseverozápadní vítr 15 kt s nárazy do 20 kt
Viditelnost: 10 km
Jasno
Od 27 v 2300 UTC
Západoseverozápadní vítr 9 kt
Viditelnost: 10 km
Jasno
Od 28 v 1700 UTC
Západojihozápadní vítr 9 kt
Viditelnost: 10 km
Skoro jasno ve výšce 15000 ft

TAF: KILM 271723Z 2718/2818 30015G20KT P6SM SKC FM272300 29009KT P6SM SKC FM281700 24009KT P6SM FEW150

Stav a předpovědi počasí z více než 4 000 letišť (zprávy METAR a TAF).

Červené a žluté tečky na mapě představují dostupné meteorologické stanice.

Když kurzor umístíte na tečku, zobrazí se název stanice.

Pak kliknutím zobrazíte stav a předpověď počasí.

Chcete-li změnit mapu, kliknutím na zelené tlačítko se znaménkem +mapu přiblížíte, kliknutím na zelené tlačítko se znaménkem – mapu oddálíte a kliknutím na zelené šipky přejdete na sousední mapy.


METAR-TAF: